createdAt,value
2018-08-24T00:00:14.687Z,100742.09
2018-08-24T00:01:19.101Z,100740.48
2018-08-24T00:02:23.613Z,100745.45
2018-08-24T00:03:27.795Z,100745.41
2018-08-24T00:04:31.980Z,100742.77
2018-08-24T00:05:36.388Z,100739.81
2018-08-24T00:06:41.720Z,100739.06
2018-08-24T00:07:45.987Z,100740.27
2018-08-24T00:08:50.189Z,100737.52
2018-08-24T00:09:54.393Z,100738.64
2018-08-24T00:10:58.626Z,100729.13
2018-08-24T00:12:02.820Z,100729.41
2018-08-24T00:13:07.433Z,100731.33
2018-08-24T00:14:12.544Z,100730.05
2018-08-24T00:15:16.720Z,100734.16
2018-08-24T00:16:25.055Z,100726.78
2018-08-24T00:17:30.214Z,100727.28
2018-08-24T00:18:34.448Z,100731.16
2018-08-24T00:19:38.630Z,100727.11
2018-08-24T00:20:42.825Z,100728.45
2018-08-24T00:21:48.259Z,100732.51
2018-08-24T00:22:52.475Z,100727.80
2018-08-24T00:23:56.691Z,100728.97
2018-08-24T00:25:01.076Z,100728.91
2018-08-24T00:26:05.303Z,100739.20
2018-08-24T00:27:09.631Z,100726.00
2018-08-24T00:28:13.842Z,100727.34
2018-08-24T00:29:18.002Z,100729.35
2018-08-24T00:30:22.336Z,100726.32
2018-08-24T00:31:26.783Z,100724.77
2018-08-24T00:32:31.034Z,100724.58
2018-08-24T00:33:35.627Z,100720.65
2018-08-24T00:34:39.931Z,100728.56
2018-08-24T00:35:44.123Z,100726.38
2018-08-24T00:36:48.376Z,100729.59
2018-08-24T00:37:52.751Z,100725.36
2018-08-24T00:38:57.338Z,100724.19
2018-08-24T00:40:01.899Z,100726.56
2018-08-24T00:41:06.121Z,100721.70
2018-08-24T00:42:10.975Z,100724.41
2018-08-24T00:43:15.163Z,100713.27
2018-08-24T00:44:19.436Z,100714.62
2018-08-24T00:45:23.669Z,100712.94
2018-08-24T00:46:27.890Z,100710.01
2018-08-24T00:47:32.298Z,100710.19
2018-08-24T00:48:36.655Z,100706.53
2018-08-24T00:49:40.887Z,100707.03
2018-08-24T00:50:45.376Z,100706.59
2018-08-24T00:51:49.577Z,100708.33
2018-08-24T00:52:53.985Z,100710.52
2018-08-24T00:53:58.198Z,100713.73
2018-08-24T00:55:02.396Z,100710.52
2018-08-24T00:56:07.467Z,100711.03
2018-08-24T00:57:11.642Z,100704.94
2018-08-24T00:58:15.940Z,100707.25
2018-08-24T00:59:20.090Z,100712.95
2018-08-24T01:00:28.445Z,100712.95
2018-08-24T01:01:32.961Z,100715.14
2018-08-24T01:02:37.327Z,100711.30
2018-08-24T01:03:41.832Z,100714.00
2018-08-24T01:04:46.151Z,100713.16
2018-08-24T01:05:50.364Z,100710.45
2018-08-24T01:06:54.622Z,100710.34
2018-08-24T01:08:03.923Z,100714.06
2018-08-24T01:09:09.366Z,100709.05
2018-08-24T01:10:18.692Z,100702.99
2018-08-24T01:11:28.520Z,100707.77
2018-08-24T01:12:32.743Z,100706.80
2018-08-24T01:13:37.015Z,100697.53
2018-08-24T01:14:43.467Z,100704.50
2018-08-24T01:15:49.868Z,100695.77
2018-08-24T01:16:59.273Z,100707.58
2018-08-24T01:18:08.907Z,100707.94
2018-08-24T01:19:13.254Z,100703.77
2018-08-24T01:20:18.095Z,100706.02
2018-08-24T01:21:22.341Z,100706.70
2018-08-24T01:22:33.304Z,100707.75
2018-08-24T01:23:37.556Z,100700.34
2018-08-24T01:24:42.227Z,100703.38
2018-08-24T01:25:46.741Z,100708.11
2018-08-24T01:26:56.245Z,100700.55
2018-08-24T01:28:00.448Z,100701.24
2018-08-24T01:29:04.659Z,100703.10
2018-08-24T01:30:08.908Z,100707.15
2018-08-24T01:31:13.100Z,100702.29
2018-08-24T01:32:17.427Z,100703.10
2018-08-24T01:33:21.909Z,100704.61
2018-08-24T01:34:26.218Z,100702.72
2018-08-24T01:35:30.423Z,100703.38
2018-08-24T01:36:34.980Z,100696.96
2018-08-24T01:37:39.140Z,100701.01
2018-08-24T01:38:43.372Z,100694.27
2018-08-24T01:39:47.580Z,100694.27
2018-08-24T01:40:51.857Z,100695.78
2018-08-24T01:41:56.166Z,100694.32
2018-08-24T01:43:00.370Z,100700.41
2018-08-24T01:44:04.679Z,100703.31
2018-08-24T01:45:08.895Z,100695.78
2018-08-24T01:46:14.625Z,100697.34
2018-08-24T01:47:18.814Z,100695.53
2018-08-24T01:48:23.520Z,100694.87
2018-08-24T01:49:27.956Z,100696.61
2018-08-24T01:50:32.411Z,100693.27
2018-08-24T01:51:36.837Z,100695.01
2018-08-24T01:52:41.062Z,100696.36
2018-08-24T01:53:45.244Z,100693.20
2018-08-24T01:54:49.411Z,100693.38
2018-08-24T01:55:53.631Z,100695.78
2018-08-24T01:56:57.831Z,100703.03
2018-08-24T01:58:02.071Z,100697.81
2018-08-24T01:59:06.349Z,100701.05
2018-08-24T02:00:13.058Z,100699.88
2018-08-24T02:01:17.288Z,100696.00
2018-08-24T02:02:21.837Z,100701.61
2018-08-24T02:03:26.089Z,100699.29
2018-08-24T02:04:30.275Z,100702.16
2018-08-24T02:05:34.455Z,100706.20
2018-08-24T02:06:38.652Z,100701.32
2018-08-24T02:07:42.823Z,100706.41
2018-08-24T02:08:46.971Z,100706.41
2018-08-24T02:09:51.144Z,100706.59
2018-08-24T02:10:55.295Z,100700.89
2018-08-24T02:11:59.459Z,100705.45
2018-08-24T02:13:09.100Z,100713.38
2018-08-24T02:14:18.696Z,100711.39
2018-08-24T02:15:22.885Z,100710.77
2018-08-24T02:16:31.227Z,100706.56
2018-08-24T02:17:40.687Z,100710.60
2018-08-24T02:18:50.363Z,100704.58
2018-08-24T02:19:59.883Z,100706.64
2018-08-24T02:21:09.575Z,100708.66
2018-08-24T02:22:18.243Z,100700.78
2018-08-24T02:23:22.406Z,100704.70
2018-08-24T02:24:26.759Z,100699.45
2018-08-24T02:25:30.899Z,100701.81
2018-08-24T02:26:35.243Z,100702.31
2018-08-24T02:27:39.436Z,100700.16
2018-08-24T02:28:43.842Z,100701.68
2018-08-24T02:29:48.025Z,100695.15
2018-08-24T02:30:52.188Z,100702.39
2018-08-24T02:31:56.364Z,100695.32
2018-08-24T02:33:00.537Z,100696.34
2018-08-24T02:34:04.740Z,100691.66
2018-08-24T02:35:08.992Z,100691.33
2018-08-24T02:36:13.175Z,100696.20
2018-08-24T02:37:17.631Z,100698.06
2018-08-24T02:38:21.930Z,100690.69
2018-08-24T02:39:26.134Z,100694.39
2018-08-24T02:40:30.827Z,100691.37
2018-08-24T02:41:35.012Z,100697.80
2018-08-24T02:42:39.166Z,100693.76
2018-08-24T02:43:43.475Z,100695.28
2018-08-24T02:44:47.654Z,100685.01
2018-08-24T02:45:51.824Z,100689.38
2018-08-24T02:46:56.019Z,100687.70
2018-08-24T02:48:00.207Z,100688.75
2018-08-24T02:49:04.374Z,100689.59
2018-08-24T02:50:08.704Z,100691.11
2018-08-24T02:51:12.944Z,100690.60
2018-08-24T02:52:17.084Z,100688.41
2018-08-24T02:53:21.649Z,100690.60
2018-08-24T02:54:25.907Z,100689.05
2018-08-24T02:55:30.126Z,100690.22
2018-08-24T02:56:34.414Z,100693.42
2018-08-24T02:57:38.733Z,100688.03
2018-08-24T02:58:42.935Z,100686.52
2018-08-24T02:59:47.179Z,100694.73
2018-08-24T03:00:51.527Z,100692.03
2018-08-24T03:01:55.677Z,100691.33
2018-08-24T03:03:00.087Z,100697.38
2018-08-24T03:04:04.251Z,100693.64
2018-08-24T03:05:08.896Z,100690.77
2018-08-24T03:06:13.121Z,100690.06
2018-08-24T03:07:17.375Z,100690.19
2018-08-24T03:08:21.631Z,100686.98
2018-08-24T03:09:25.832Z,100685.13
2018-08-24T03:10:30.024Z,100680.11
2018-08-24T03:11:34.255Z,100682.80
2018-08-24T03:12:38.450Z,100687.18
2018-08-24T03:13:42.659Z,100687.18
2018-08-24T03:14:46.871Z,100690.51
2018-08-24T03:15:51.062Z,100692.19
2018-08-24T03:17:00.615Z,100688.45
2018-08-24T03:18:04.797Z,100689.11
2018-08-24T03:19:08.980Z,100688.06
2018-08-24T03:20:13.210Z,100691.22
2018-08-24T03:21:18.334Z,100690.72
2018-08-24T03:22:22.642Z,100688.35
2018-08-24T03:23:27.085Z,100693.92
2018-08-24T03:24:31.287Z,100686.72
2018-08-24T03:25:35.570Z,100690.46
2018-08-24T03:26:39.770Z,100692.83
2018-08-24T03:27:44.061Z,100686.64
2018-08-24T03:28:48.238Z,100687.49
2018-08-24T03:29:52.407Z,100690.56
2018-08-24T03:30:56.605Z,100687.23
2018-08-24T03:32:00.796Z,100691.98
2018-08-24T03:33:04.983Z,100693.00
2018-08-24T03:34:09.205Z,100696.03
2018-08-24T03:35:13.388Z,100694.98
2018-08-24T03:36:17.570Z,100694.02
2018-08-24T03:37:21.819Z,100700.75
2018-08-24T03:38:26.091Z,100698.56
2018-08-24T03:39:30.382Z,100706.86
2018-08-24T03:40:34.570Z,100706.19
2018-08-24T03:41:39.021Z,100703.56
2018-08-24T03:42:43.275Z,100701.92
2018-08-24T03:43:47.565Z,100698.27
2018-08-24T03:44:52.261Z,100701.33
2018-08-24T03:45:56.530Z,100702.04
2018-08-24T03:47:01.021Z,100701.06
2018-08-24T03:48:05.574Z,100709.15
2018-08-24T03:49:09.783Z,100703.59
2018-08-24T03:50:13.947Z,100712.22
2018-08-24T03:51:18.103Z,100711.24
2018-08-24T03:52:22.323Z,100712.93
2018-08-24T03:53:26.470Z,100716.67
2018-08-24T03:54:31.049Z,100719.73
2018-08-24T03:55:37.350Z,100719.27
2018-08-24T03:56:42.402Z,100719.30
2018-08-24T03:57:46.752Z,100717.81
2018-08-24T03:58:50.954Z,100723.38
2018-08-24T03:59:55.159Z,100721.89
2018-08-24T04:00:59.747Z,100723.61
2018-08-24T04:02:05.652Z,100729.36
2018-08-24T04:03:10.247Z,100725.86
2018-08-24T04:04:14.696Z,100720.67
2018-08-24T04:05:18.883Z,100727.06
2018-08-24T04:06:23.066Z,100721.03
2018-08-24T04:07:27.209Z,100728.27
2018-08-24T04:08:31.367Z,100723.90
2018-08-24T04:09:35.511Z,100720.70
2018-08-24T04:10:39.691Z,100726.42
2018-08-24T04:11:44.168Z,100726.59
2018-08-24T04:12:48.488Z,100725.58
2018-08-24T04:13:52.583Z,100726.22
2018-08-24T04:14:56.735Z,100720.67
2018-08-24T04:16:01.216Z,100724.14
2018-08-24T04:17:10.920Z,100723.27
2018-08-24T04:18:15.123Z,100727.64
2018-08-24T04:19:27.380Z,100726.63
2018-08-24T04:20:31.530Z,100731.48
2018-08-24T04:21:35.703Z,100732.32
2018-08-24T04:22:39.891Z,100731.81
2018-08-24T04:23:44.045Z,100731.31
2018-08-24T04:24:48.206Z,100735.35
2018-08-24T04:25:52.387Z,100732.16
2018-08-24T04:26:57.242Z,100739.52
2018-08-24T04:28:01.373Z,100727.75
2018-08-24T04:29:05.889Z,100730.23
2018-08-24T04:30:11.283Z,100732.59
2018-08-24T04:31:15.429Z,100728.22
2018-08-24T04:32:19.591Z,100731.55
2018-08-24T04:33:23.737Z,100726.00
2018-08-24T04:34:27.908Z,100733.56
2018-08-24T04:35:32.172Z,100737.27
2018-08-24T04:36:36.609Z,100735.42
2018-08-24T04:37:40.811Z,100731.38
2018-08-24T04:38:45.319Z,100740.61
2018-08-24T04:39:49.786Z,100739.73
2018-08-24T04:40:53.971Z,100741.75
2018-08-24T04:41:58.164Z,100743.91
2018-08-24T04:43:02.374Z,100737.17
2018-08-24T04:44:06.676Z,100739.86
2018-08-24T04:45:10.855Z,100741.92
2018-08-24T04:46:15.052Z,100740.23
2018-08-24T04:47:19.276Z,100753.70
2018-08-24T04:48:23.484Z,100739.09
2018-08-24T04:49:27.656Z,100737.07
2018-08-24T04:50:31.838Z,100733.23
2018-08-24T04:51:35.984Z,100732.73
2018-08-24T04:52:40.245Z,100727.14
2018-08-24T04:53:45.002Z,100727.14
2018-08-24T04:54:49.491Z,100732.16
2018-08-24T04:55:54.192Z,100736.03
2018-08-24T04:56:58.322Z,100733.13
2018-08-24T04:58:02.602Z,100728.58
2018-08-24T04:59:06.785Z,100730.27
2018-08-24T05:00:11.016Z,100736.16
2018-08-24T05:01:15.155Z,100731.11
2018-08-24T05:02:19.307Z,100730.27
2018-08-24T05:03:23.793Z,100735.83
2018-08-24T05:04:27.984Z,100733.97
2018-08-24T05:05:32.306Z,100727.74
2018-08-24T05:06:36.665Z,100732.83
2018-08-24T05:07:40.821Z,100736.87
2018-08-24T05:08:45.011Z,100740.41
2018-08-24T05:09:49.214Z,100741.38
2018-08-24T05:10:53.383Z,100736.50
2018-08-24T05:11:57.588Z,100741.88
2018-08-24T05:13:01.724Z,100744.38
2018-08-24T05:14:06.447Z,100744.20
2018-08-24T05:15:10.889Z,100742.99
2018-08-24T05:16:15.438Z,100748.85
2018-08-24T05:17:19.729Z,100753.86
2018-08-24T05:18:23.901Z,100745.08
2018-08-24T05:19:28.138Z,100746.08
2018-08-24T05:20:32.295Z,100744.02
2018-08-24T05:21:36.619Z,100744.36
2018-08-24T05:22:40.787Z,100743.52
2018-08-24T05:23:44.967Z,100745.87
2018-08-24T05:24:49.169Z,100743.69
2018-08-24T05:25:53.338Z,100745.37
2018-08-24T05:26:57.516Z,100749.21
2018-08-24T05:28:01.752Z,100741.47
2018-08-24T05:29:06.082Z,100748.53
2018-08-24T05:30:10.294Z,100742.64
2018-08-24T05:31:14.500Z,100745.34
2018-08-24T05:32:18.667Z,100750.02
2018-08-24T05:33:22.881Z,100749.00
2018-08-24T05:34:27.068Z,100748.80
2018-08-24T05:35:31.262Z,100748.96
2018-08-24T05:36:35.420Z,100755.50
2018-08-24T05:37:39.760Z,100752.63
2018-08-24T05:38:43.951Z,100753.27
2018-08-24T05:39:48.111Z,100759.50
2018-08-24T05:40:52.300Z,100758.66
2018-08-24T05:41:56.495Z,100763.34
2018-08-24T05:43:00.766Z,100766.58
2018-08-24T05:44:04.945Z,100765.86
2018-08-24T05:45:09.107Z,100764.84
2018-08-24T05:46:13.295Z,100769.40
2018-08-24T05:47:17.559Z,100765.02
2018-08-24T05:48:21.810Z,100769.06
2018-08-24T05:49:26.039Z,100766.03
2018-08-24T05:50:30.403Z,100758.79
2018-08-24T05:51:34.564Z,100764.38
2018-08-24T05:52:38.751Z,100766.74
2018-08-24T05:53:42.924Z,100773.48
2018-08-24T05:54:47.398Z,100772.13
2018-08-24T05:55:51.730Z,100770.45
2018-08-24T05:56:55.944Z,100770.95
2018-08-24T05:58:00.127Z,100770.31
2018-08-24T05:59:04.308Z,100769.81
2018-08-24T06:00:08.508Z,100770.83
2018-08-24T06:01:12.896Z,100771.33
2018-08-24T06:02:17.372Z,100773.72
2018-08-24T06:03:21.677Z,100772.55
2018-08-24T06:04:26.098Z,100775.23
2018-08-24T06:05:30.396Z,100774.23
2018-08-24T06:06:34.591Z,100774.87
2018-08-24T06:07:38.976Z,100773.85
2018-08-24T06:08:43.205Z,100776.34
2018-08-24T06:09:47.408Z,100771.30
2018-08-24T06:10:51.692Z,100774.83
2018-08-24T06:11:56.137Z,100772.77
2018-08-24T06:13:00.725Z,100770.28
2018-08-24T06:14:04.974Z,100767.45
2018-08-24T06:15:09.374Z,100765.13
2018-08-24T06:16:13.546Z,100768.84
2018-08-24T06:17:22.860Z,100771.88
2018-08-24T06:18:27.110Z,100773.39
2018-08-24T06:19:31.308Z,100776.59
2018-08-24T06:20:35.729Z,100775.95
2018-08-24T06:21:40.028Z,100774.91
2018-08-24T06:22:44.388Z,100778.95
2018-08-24T06:23:48.608Z,100776.80
2018-08-24T06:24:52.865Z,100776.25
2018-08-24T06:25:57.248Z,100786.02
2018-08-24T06:27:01.464Z,100784.16
2018-08-24T06:28:05.883Z,100790.73
2018-08-24T06:29:10.104Z,100779.42
2018-08-24T06:30:14.401Z,100784.30
2018-08-24T06:31:18.693Z,100781.30
2018-08-24T06:32:22.916Z,100783.16
2018-08-24T06:33:27.103Z,100784.00
2018-08-24T06:34:31.325Z,100785.18
2018-08-24T06:35:35.534Z,100793.13
2018-08-24T06:36:39.752Z,100794.84
2018-08-24T06:37:44.067Z,100787.30
2018-08-24T06:38:48.263Z,100789.87
2018-08-24T06:39:52.438Z,100792.56
2018-08-24T06:40:56.627Z,100789.53
2018-08-24T06:42:00.955Z,100800.31
2018-08-24T06:43:05.396Z,100788.18
2018-08-24T06:44:09.768Z,100793.91
2018-08-24T06:45:13.942Z,100800.64
2018-08-24T06:46:18.143Z,100798.66
2018-08-24T06:47:22.654Z,100804.05
2018-08-24T06:48:26.775Z,100801.02
2018-08-24T06:49:31.023Z,100808.59
2018-08-24T06:50:35.416Z,100810.45
2018-08-24T06:51:39.686Z,100809.09
2018-08-24T06:52:43.875Z,100807.75
2018-08-24T06:53:48.055Z,100808.59
2018-08-24T06:54:52.271Z,100809.43
2018-08-24T06:55:56.475Z,100815.12
2018-08-24T06:57:00.741Z,100811.76
2018-08-24T06:58:05.100Z,100808.36
2018-08-24T06:59:09.309Z,100806.34
2018-08-24T07:00:13.534Z,100814.05
2018-08-24T07:01:17.708Z,100815.19
2018-08-24T07:02:21.912Z,100812.63
2018-08-24T07:03:26.177Z,100814.31
2018-08-24T07:04:30.689Z,100811.62
2018-08-24T07:05:34.892Z,100807.08
2018-08-24T07:06:39.062Z,100812.63
2018-08-24T07:07:43.247Z,100813.48
2018-08-24T07:08:47.421Z,100811.28
2018-08-24T07:09:51.612Z,100817.02
2018-08-24T07:10:55.891Z,100820.55
2018-08-24T07:12:00.030Z,100817.34
2018-08-24T07:13:04.507Z,100825.06
2018-08-24T07:14:08.648Z,100820.31
2018-08-24T07:15:13.159Z,100825.03
2018-08-24T07:16:17.662Z,100824.52
2018-08-24T07:17:27.091Z,100822.64
2018-08-24T07:18:35.428Z,100828.73
2018-08-24T07:19:39.904Z,100827.05
2018-08-24T07:20:44.052Z,100829.95
2018-08-24T07:21:48.416Z,100830.11
2018-08-24T07:22:52.612Z,100830.11
2018-08-24T07:23:56.989Z,100831.47
2018-08-24T07:25:01.152Z,100830.11
2018-08-24T07:26:05.487Z,100827.92
2018-08-24T07:27:09.708Z,100826.78
2018-08-24T07:28:13.890Z,100824.09
2018-08-24T07:29:18.103Z,100824.09
2018-08-24T07:30:22.276Z,100825.09
2018-08-24T07:31:26.443Z,100825.60
2018-08-24T07:32:30.691Z,100826.45
2018-08-24T07:33:34.911Z,100828.47
2018-08-24T07:34:39.219Z,100827.12
2018-08-24T07:35:43.431Z,100827.63
2018-08-24T07:36:47.760Z,100826.78
2018-08-24T07:37:51.908Z,100831.33
2018-08-24T07:38:56.160Z,100837.89
2018-08-24T07:40:03.490Z,100831.33
2018-08-24T07:41:07.657Z,100839.41
2018-08-24T07:42:12.188Z,100844.63
2018-08-24T07:43:16.684Z,100840.25
2018-08-24T07:44:20.925Z,100833.89
2018-08-24T07:45:25.184Z,100845.03
2018-08-24T07:46:29.347Z,100850.59
2018-08-24T07:47:33.618Z,100848.61
2018-08-24T07:48:37.816Z,100848.77
2018-08-24T07:49:41.980Z,100845.77
2018-08-24T07:50:46.331Z,100847.13
2018-08-24T07:51:50.482Z,100839.04
2018-08-24T07:52:54.661Z,100837.83
2018-08-24T07:53:58.829Z,100839.81
2018-08-24T07:55:03.018Z,100849.58
2018-08-24T07:56:07.238Z,100851.77
2018-08-24T07:57:11.512Z,100848.74
2018-08-24T07:58:16.142Z,100859.19
2018-08-24T07:59:20.319Z,100857.84
2018-08-24T08:00:24.575Z,100856.83
2018-08-24T08:01:29.211Z,100853.42
2018-08-24T08:02:38.731Z,100849.86
2018-08-24T08:03:43.347Z,100857.06
2018-08-24T08:04:47.770Z,100857.20
2018-08-24T08:05:52.152Z,100858.05
2018-08-24T08:06:56.367Z,100859.22
2018-08-24T08:08:00.604Z,100861.41
2018-08-24T08:09:07.216Z,100861.20
2018-08-24T08:10:11.428Z,100860.70
2018-08-24T08:11:15.740Z,100855.95
2018-08-24T08:12:19.954Z,100857.64
2018-08-24T08:13:24.152Z,100864.37
2018-08-24T08:14:28.498Z,100872.33
2018-08-24T08:15:32.691Z,100863.77
2018-08-24T08:16:36.925Z,100868.19
2018-08-24T08:17:41.563Z,100875.62
2018-08-24T08:18:45.788Z,100879.84
2018-08-24T08:19:49.954Z,100880.00
2018-08-24T08:20:54.252Z,100881.72
2018-08-24T08:21:59.470Z,100888.32
2018-08-24T08:23:03.693Z,100888.20
2018-08-24T08:24:07.879Z,100886.39
2018-08-24T08:25:12.187Z,100893.48
2018-08-24T08:26:16.545Z,100890.66
2018-08-24T08:27:20.762Z,100897.89
2018-08-24T08:28:25.077Z,100900.25
2018-08-24T08:29:34.665Z,100895.56
2018-08-24T08:30:38.899Z,100902.30
2018-08-24T08:31:43.191Z,100900.30
2018-08-24T08:32:47.463Z,100903.16
2018-08-24T08:33:51.870Z,100902.18
2018-08-24T08:34:56.026Z,100899.85
2018-08-24T08:36:00.415Z,100907.59
2018-08-24T08:37:04.613Z,100908.09
2018-08-24T08:38:08.998Z,100907.28
2018-08-24T08:39:13.571Z,100911.99
2018-08-24T08:40:17.727Z,100913.84
2018-08-24T08:41:21.948Z,100911.69
2018-08-24T08:42:26.465Z,100913.34
2018-08-24T08:43:30.780Z,100916.71
2018-08-24T08:44:34.972Z,100921.03
2018-08-24T08:45:39.255Z,100922.16
2018-08-24T08:46:43.640Z,100913.19
2018-08-24T08:47:47.971Z,100916.84
2018-08-24T08:48:52.324Z,100918.80
2018-08-24T08:49:56.535Z,100918.27
2018-08-24T08:51:00.738Z,100921.44
2018-08-24T08:52:04.940Z,100927.48
2018-08-24T08:53:09.137Z,100931.48
2018-08-24T08:54:13.405Z,100937.52
2018-08-24T08:55:17.919Z,100936.45
2018-08-24T08:56:22.095Z,100933.39
2018-08-24T08:57:26.273Z,100932.02
2018-08-24T08:58:30.472Z,100932.48
2018-08-24T08:59:34.644Z,100932.31
2018-08-24T09:00:38.860Z,100937.17
2018-08-24T09:01:43.179Z,100938.72
2018-08-24T09:02:47.458Z,100945.13
2018-08-24T09:03:51.807Z,100943.30
2018-08-24T09:04:56.163Z,100942.16
2018-08-24T09:06:00.432Z,100946.06
2018-08-24T09:07:04.635Z,100942.89
2018-08-24T09:08:08.836Z,100935.47
2018-08-24T09:09:13.006Z,100936.52
2018-08-24T09:10:17.204Z,100935.53
2018-08-24T09:11:21.403Z,100947.32
2018-08-24T09:12:25.612Z,100942.64
2018-08-24T09:13:29.736Z,100935.25
2018-08-24T09:14:33.888Z,100944.55
2018-08-24T09:15:38.600Z,100937.33
2018-08-24T09:16:42.840Z,100942.22
2018-08-24T09:17:52.248Z,100940.89
2018-08-24T09:19:01.575Z,100941.95
2018-08-24T09:20:11.065Z,100940.49
2018-08-24T09:21:20.552Z,100938.86
2018-08-24T09:22:30.044Z,100949.97
2018-08-24T09:23:39.627Z,100947.12
2018-08-24T09:25:46.743Z,100950.02
2018-08-24T09:26:56.425Z,100952.53
2018-08-24T09:28:06.031Z,100952.03
2018-08-24T09:29:15.496Z,100951.03
2018-08-24T09:30:20.257Z,100953.88
2018-08-24T09:31:26.764Z,100954.08
2018-08-24T09:32:31.380Z,100954.58
2018-08-24T09:33:35.780Z,100949.05
2018-08-24T09:34:39.968Z,100956.13
2018-08-24T09:35:44.111Z,100955.09
2018-08-24T09:36:48.299Z,100953.38
2018-08-24T09:37:52.485Z,100952.53
2018-08-24T09:38:56.711Z,100952.71
2018-08-24T09:40:01.039Z,100948.81
2018-08-24T09:41:05.403Z,100950.30
2018-08-24T09:42:09.599Z,100939.67
2018-08-24T09:43:18.957Z,100948.58
2018-08-24T09:44:23.265Z,100947.85
2018-08-24T09:45:27.460Z,100947.80
2018-08-24T09:46:36.934Z,100950.75
2018-08-24T09:49:48.195Z,100946.31
2018-08-24T09:51:28.946Z,100953.52
2018-08-24T09:52:33.087Z,100949.84
2018-08-24T09:53:42.615Z,100938.65
2018-08-24T09:54:47.006Z,100947.98
2018-08-24T09:55:51.193Z,100940.70
2018-08-24T09:56:55.333Z,100952.67
2018-08-24T09:57:59.499Z,100943.36
2018-08-24T09:59:03.727Z,100960.02
2018-08-24T10:00:07.930Z,100951.04
2018-08-24T10:01:17.659Z,100955.09
2018-08-24T10:02:25.915Z,100945.64
2018-08-24T10:03:35.225Z,100942.10
2018-08-24T10:04:44.633Z,100949.36
2018-08-24T10:05:54.436Z,100947.50
2018-08-24T10:07:04.155Z,100946.02
2018-08-24T10:08:13.612Z,100941.00
2018-08-24T10:09:17.836Z,100938.64
2018-08-24T10:10:22.114Z,100953.81
2018-08-24T10:11:26.313Z,100948.08
2018-08-24T10:12:35.646Z,100953.04
2018-08-24T10:13:39.993Z,100950.89
2018-08-24T10:14:44.147Z,100951.80
2018-08-24T10:15:48.357Z,100949.51
2018-08-24T10:16:52.770Z,100951.56
2018-08-24T10:17:56.968Z,100949.37
2018-08-24T10:19:01.387Z,100946.67
2018-08-24T10:20:06.284Z,100947.86
2018-08-24T10:21:10.480Z,100943.61
2018-08-24T10:22:14.688Z,100950.31
2018-08-24T10:23:19.047Z,100945.90
2018-08-24T10:24:23.238Z,100944.89
2018-08-24T10:25:27.403Z,100941.52
2018-08-24T10:26:31.583Z,100947.25
2018-08-24T10:27:35.804Z,100940.50
2018-08-24T10:28:39.995Z,100940.17
2018-08-24T10:29:44.320Z,100946.27
2018-08-24T10:30:48.520Z,100948.63
2018-08-24T10:31:52.806Z,100947.15
2018-08-24T10:32:56.951Z,100937.58
2018-08-24T10:34:01.369Z,100947.86
2018-08-24T10:35:05.586Z,100944.31
2018-08-24T10:36:09.804Z,100938.59
2018-08-24T10:37:13.984Z,100944.31
2018-08-24T10:38:18.201Z,100944.31
2018-08-24T10:39:22.383Z,100942.97
2018-08-24T10:40:26.573Z,100947.52
2018-08-24T10:41:30.983Z,100954.27
2018-08-24T10:42:35.227Z,100947.18
2018-08-24T10:43:39.459Z,100948.23
2018-08-24T10:44:43.845Z,100945.84
2018-08-24T10:45:48.023Z,100946.03
2018-08-24T10:46:52.198Z,100947.72
2018-08-24T10:47:56.353Z,100950.72
2018-08-24T10:49:00.695Z,100942.46
2018-08-24T10:50:04.923Z,100936.56
2018-08-24T10:51:09.093Z,100941.25
2018-08-24T10:52:13.259Z,100931.77
2018-08-24T10:53:17.415Z,100936.42
2018-08-24T10:54:21.598Z,100933.31
2018-08-24T10:55:25.796Z,100932.36
2018-08-24T10:56:30.405Z,100929.63
2018-08-24T10:57:34.542Z,100936.20
2018-08-24T10:58:38.723Z,100929.75
2018-08-24T10:59:42.917Z,100933.30
2018-08-24T11:00:47.125Z,100938.69
2018-08-24T11:01:51.392Z,100930.59
2018-08-24T11:02:55.642Z,100934.47
2018-08-24T11:03:59.815Z,100944.93
2018-08-24T11:05:04.046Z,100938.19
2018-08-24T11:06:08.469Z,100936.84
2018-08-24T11:07:12.811Z,100929.45
2018-08-24T11:08:16.959Z,100938.89
2018-08-24T11:09:21.342Z,100933.80
2018-08-24T11:10:25.512Z,100940.17
2018-08-24T11:11:29.687Z,100937.12
2018-08-24T11:12:33.876Z,100934.73
2018-08-24T11:13:38.023Z,100944.47
2018-08-24T11:14:42.203Z,100938.52
2018-08-24T11:15:49.539Z,100934.94
2018-08-24T11:16:53.825Z,100943.33
2018-08-24T11:18:03.192Z,100937.34
2018-08-24T11:19:07.623Z,100939.48
2018-08-24T11:20:11.964Z,100941.81
2018-08-24T11:21:16.276Z,100940.41
2018-08-24T11:22:20.748Z,100943.37
2018-08-24T11:23:25.082Z,100937.92
2018-08-24T11:24:29.278Z,100941.08
2018-08-24T11:25:33.500Z,100938.33
2018-08-24T11:26:37.701Z,100944.36
2018-08-24T11:27:41.953Z,100947.19
2018-08-24T11:28:46.176Z,100942.75
2018-08-24T11:29:50.391Z,100940.72
2018-08-24T11:30:54.522Z,100937.56
2018-08-24T11:31:58.676Z,100939.17
2018-08-24T11:33:02.919Z,100940.23
2018-08-24T11:34:07.219Z,100943.50
2018-08-24T11:35:11.318Z,100943.06
2018-08-24T11:36:15.526Z,100941.77
2018-08-24T11:37:19.624Z,100944.52
2018-08-24T11:38:23.807Z,100938.31
2018-08-24T11:39:28.061Z,100932.99
2018-08-24T11:40:32.248Z,100936.25
2018-08-24T11:41:36.766Z,100936.62
2018-08-24T11:42:41.042Z,100940.34
2018-08-24T11:43:45.664Z,100929.92
2018-08-24T11:44:50.075Z,100930.77
2018-08-24T11:45:54.522Z,100928.23
2018-08-24T11:46:58.699Z,100939.70
2018-08-24T11:48:02.919Z,100932.23
2018-08-24T11:49:07.137Z,100938.95
2018-08-24T11:50:11.317Z,100933.50
2018-08-24T11:51:15.483Z,100933.75
2018-08-24T11:52:20.810Z,100941.81
2018-08-24T11:53:25.119Z,100938.22
2018-08-24T11:54:29.354Z,100937.28
2018-08-24T11:55:33.507Z,100938.84
2018-08-24T11:56:37.680Z,100936.34
2018-08-24T11:57:41.874Z,100938.09
2018-08-24T11:58:46.023Z,100935.13
2018-08-24T11:59:50.226Z,100935.70
2018-08-24T12:00:54.352Z,100940.33
2018-08-24T12:01:58.508Z,100935.87
2018-08-24T12:03:03.373Z,100937.80
2018-08-24T12:04:07.524Z,100940.05
2018-08-24T12:05:11.720Z,100937.67
2018-08-24T12:06:16.148Z,100937.80
2018-08-24T12:07:20.294Z,100943.32
2018-08-24T12:08:24.455Z,100939.48
2018-08-24T12:09:28.612Z,100940.38
2018-08-24T12:10:32.775Z,100937.22
2018-08-24T12:11:37.258Z,100937.10
2018-08-24T12:12:41.592Z,100934.45
2018-08-24T12:13:45.825Z,100942.95
2018-08-24T12:14:49.976Z,100936.25
2018-08-24T12:15:54.182Z,100944.03
2018-08-24T12:16:58.489Z,100943.73
2018-08-24T12:18:03.089Z,100947.58
2018-08-24T12:19:07.345Z,100945.59
2018-08-24T12:20:11.883Z,100945.59
2018-08-24T12:21:16.385Z,100944.39